createdAt,value
2019-02-14T00:01:45.743Z,99.90
2019-02-14T00:04:15.382Z,99.90
2019-02-14T00:06:44.879Z,99.90
2019-02-14T00:09:14.500Z,99.90
2019-02-14T00:11:44.094Z,99.90
2019-02-14T00:14:13.686Z,99.90
2019-02-14T00:16:43.513Z,99.90
2019-02-14T00:19:12.886Z,99.90
2019-02-14T00:21:42.517Z,99.90
2019-02-14T00:24:11.945Z,99.90
2019-02-14T00:26:41.626Z,99.90
2019-02-14T00:29:11.011Z,99.90
2019-02-14T00:31:40.489Z,99.90
2019-02-14T00:34:10.038Z,99.90
2019-02-14T00:36:39.433Z,99.90
2019-02-14T00:39:08.984Z,99.90
2019-02-14T00:41:38.398Z,99.90
2019-02-14T00:44:08.059Z,99.90
2019-02-14T00:46:37.526Z,99.90
2019-02-14T00:49:07.001Z,99.90
2019-02-14T00:51:36.570Z,99.90
2019-02-14T00:54:06.048Z,99.90
2019-02-14T00:56:35.727Z,99.90
2019-02-14T00:59:05.206Z,99.90
2019-02-14T01:01:34.802Z,99.90
2019-02-14T01:04:04.374Z,99.90
2019-02-14T01:06:33.880Z,99.90
2019-02-14T01:09:03.609Z,99.90
2019-02-14T01:11:33.154Z,99.90
2019-02-14T01:14:02.577Z,99.90
2019-02-14T01:16:32.032Z,99.90
2019-02-14T01:19:01.641Z,99.90
2019-02-14T01:21:31.041Z,99.90
2019-02-14T01:24:00.650Z,99.90
2019-02-14T01:26:30.133Z,99.90
2019-02-14T01:28:59.623Z,99.90
2019-02-14T01:31:29.270Z,99.90
2019-02-14T01:33:58.639Z,99.90
2019-02-14T01:36:28.457Z,99.90
2019-02-14T01:38:57.806Z,99.90
2019-02-14T01:41:27.323Z,99.90
2019-02-14T01:43:56.870Z,99.90
2019-02-14T01:46:26.436Z,99.90
2019-02-14T01:48:55.958Z,99.90
2019-02-14T01:51:25.671Z,99.90
2019-02-14T01:53:55.109Z,99.90
2019-02-14T01:56:24.659Z,99.90
2019-02-14T01:58:54.074Z,99.90
2019-02-14T02:01:23.797Z,99.90
2019-02-14T02:03:53.146Z,99.90
2019-02-14T02:06:22.744Z,99.90
2019-02-14T02:08:52.318Z,99.90
2019-02-14T02:11:21.829Z,99.90
2019-02-14T02:13:51.681Z,99.90
2019-02-14T02:16:21.135Z,99.90
2019-02-14T02:18:50.867Z,99.90
2019-02-14T02:21:20.591Z,99.90
2019-02-14T02:23:50.283Z,99.90
2019-02-14T02:26:20.106Z,99.90
2019-02-14T02:28:49.645Z,99.90
2019-02-14T02:31:19.138Z,99.90
2019-02-14T02:33:48.745Z,99.90
2019-02-14T02:36:18.211Z,99.90
2019-02-14T02:38:47.746Z,99.90
2019-02-14T02:41:17.373Z,99.90
2019-02-14T02:43:46.952Z,99.90
2019-02-14T02:46:16.329Z,99.90
2019-02-14T02:48:45.861Z,99.90
2019-02-14T02:51:15.437Z,99.90
2019-02-14T02:53:45.198Z,99.90
2019-02-14T02:56:14.668Z,99.90
2019-02-14T02:58:44.150Z,99.90
2019-02-14T03:01:13.613Z,99.90
2019-02-14T03:03:43.153Z,99.90
2019-02-14T03:06:12.637Z,99.90
2019-02-14T03:08:42.212Z,99.90
2019-02-14T03:11:11.825Z,99.90
2019-02-14T03:13:41.322Z,99.90
2019-02-14T03:16:13.035Z,99.90
2019-02-14T03:18:42.524Z,99.90
2019-02-14T03:21:11.842Z,99.90
2019-02-14T03:23:41.421Z,99.90
2019-02-14T03:26:11.066Z,99.90
2019-02-14T03:28:40.547Z,99.90
2019-02-14T03:31:10.045Z,99.90
2019-02-14T03:33:39.657Z,99.90
2019-02-14T03:36:09.172Z,99.90
2019-02-14T03:38:38.663Z,99.90
2019-02-14T03:41:08.480Z,99.90
2019-02-14T03:43:37.803Z,99.90
2019-02-14T03:46:07.221Z,99.90
2019-02-14T03:48:36.908Z,99.90
2019-02-14T03:51:06.427Z,99.90
2019-02-14T03:53:35.918Z,99.90
2019-02-14T03:56:05.424Z,99.90
2019-02-14T03:58:35.095Z,99.90
2019-02-14T04:01:04.514Z,99.90
2019-02-14T04:03:34.003Z,99.90
2019-02-14T04:06:03.615Z,99.90
2019-02-14T04:08:33.240Z,99.90
2019-02-14T04:11:02.951Z,99.90
2019-02-14T04:13:32.427Z,99.90
2019-02-14T04:16:02.250Z,99.90
2019-02-14T04:18:31.622Z,99.90
2019-02-14T04:21:01.449Z,99.90
2019-02-14T04:23:30.812Z,99.90
2019-02-14T04:26:00.358Z,99.90
2019-02-14T04:28:29.901Z,99.90
2019-02-14T04:30:59.302Z,99.90
2019-02-14T04:33:28.733Z,99.90
2019-02-14T04:35:58.166Z,99.90
2019-02-14T04:38:27.754Z,99.90
2019-02-14T04:40:57.259Z,99.90
2019-02-14T04:43:26.629Z,99.90
2019-02-14T04:45:56.266Z,99.90
2019-02-14T04:48:26.001Z,99.90
2019-02-14T04:50:55.476Z,99.90
2019-02-14T04:53:25.061Z,99.90
2019-02-14T04:55:54.450Z,99.90
2019-02-14T04:58:24.053Z,99.90
2019-02-14T05:00:53.752Z,99.90
2019-02-14T05:03:23.136Z,99.90
2019-02-14T05:05:52.643Z,99.90
2019-02-14T05:08:22.319Z,99.90
2019-02-14T05:10:51.773Z,99.90
2019-02-14T05:13:21.399Z,99.90
2019-02-14T05:15:50.906Z,99.90
2019-02-14T05:18:20.559Z,99.90
2019-02-14T05:20:50.135Z,99.90
2019-02-14T05:23:19.626Z,99.90
2019-02-14T05:25:49.335Z,99.90
2019-02-14T05:28:18.807Z,99.90
2019-02-14T05:30:48.414Z,99.90
2019-02-14T05:33:17.814Z,99.90
2019-02-14T05:35:47.601Z,99.90
2019-02-14T05:38:17.076Z,99.90
2019-02-14T05:40:46.681Z,99.90
2019-02-14T05:43:16.145Z,99.90
2019-02-14T05:45:45.667Z,99.90
2019-02-14T05:48:15.044Z,99.90
2019-02-14T05:50:44.475Z,99.90
2019-02-14T05:53:14.088Z,99.90
2019-02-14T05:55:43.682Z,99.90
2019-02-14T05:58:13.210Z,99.90
2019-02-14T06:00:42.659Z,99.90
2019-02-14T06:03:12.065Z,99.90
2019-02-14T06:05:41.806Z,99.90
2019-02-14T06:08:11.659Z,99.90
2019-02-14T06:10:41.034Z,99.90
2019-02-14T06:13:10.742Z,99.90
2019-02-14T06:15:40.169Z,99.90
2019-02-14T06:18:09.856Z,99.90
2019-02-14T06:20:39.147Z,99.90
2019-02-14T06:23:08.518Z,99.90
2019-02-14T06:25:38.109Z,99.90
2019-02-14T06:28:07.674Z,99.90
2019-02-14T06:30:37.280Z,99.90
2019-02-14T06:33:06.775Z,99.90
2019-02-14T06:35:36.317Z,99.90
2019-02-14T06:38:05.798Z,99.90
2019-02-14T06:40:35.437Z,99.90
2019-02-14T06:43:04.897Z,99.90
2019-02-14T06:45:34.413Z,99.90
2019-02-14T06:48:04.249Z,99.90
2019-02-14T06:50:34.999Z,99.90
2019-02-14T06:53:04.631Z,99.90
2019-02-14T06:55:34.140Z,99.90
2019-02-14T06:58:03.510Z,99.90
2019-02-14T07:00:33.014Z,99.90
2019-02-14T07:03:02.367Z,99.90
2019-02-14T07:05:31.787Z,99.90
2019-02-14T07:08:01.327Z,99.90
2019-02-14T07:10:30.774Z,99.90
2019-02-14T07:13:00.298Z,99.90
2019-02-14T07:15:29.858Z,99.90
2019-02-14T07:17:59.515Z,99.90
2019-02-14T07:20:28.961Z,99.90
2019-02-14T07:22:58.831Z,99.90
2019-02-14T07:25:28.292Z,99.90
2019-02-14T07:27:58.090Z,99.90
2019-02-14T07:30:28.776Z,99.90
2019-02-14T07:32:58.374Z,99.90
2019-02-14T07:35:27.818Z,99.90
2019-02-14T07:37:57.226Z,99.90
2019-02-14T07:40:26.599Z,99.90
2019-02-14T07:42:56.047Z,99.90
2019-02-14T07:45:25.488Z,99.90
2019-02-14T07:47:55.003Z,99.90
2019-02-14T07:50:24.553Z,99.90
2019-02-14T07:52:54.067Z,99.90
2019-02-14T07:55:23.587Z,99.90
2019-02-14T07:57:53.446Z,99.90
2019-02-14T08:00:22.833Z,99.90
2019-02-14T08:02:52.250Z,99.90
2019-02-14T08:05:21.981Z,99.90
2019-02-14T08:07:51.375Z,99.90
2019-02-14T08:10:21.310Z,99.90
2019-02-14T08:12:50.673Z,99.90
2019-02-14T08:15:20.193Z,99.90
2019-02-14T08:17:49.527Z,99.90
2019-02-14T08:20:18.989Z,99.90
2019-02-14T08:22:48.502Z,99.90
2019-02-14T08:25:18.064Z,99.90
2019-02-14T08:27:47.542Z,99.90
2019-02-14T08:30:17.264Z,99.90
2019-02-14T08:32:46.617Z,99.90
2019-02-14T08:35:16.297Z,99.90
2019-02-14T08:37:46.211Z,99.90
2019-02-14T08:40:18.761Z,99.90
2019-02-14T08:42:48.151Z,99.90
2019-02-14T08:45:17.691Z,99.90
2019-02-14T08:47:47.112Z,99.90
2019-02-14T08:50:16.624Z,99.90
2019-02-14T08:52:46.819Z,99.90
2019-02-14T08:55:16.384Z,99.90
2019-02-14T08:57:46.050Z,99.90
2019-02-14T09:00:15.801Z,99.90
2019-02-14T09:02:45.206Z,99.90
2019-02-14T09:05:15.099Z,99.90
2019-02-14T09:07:44.543Z,99.90
2019-02-14T09:10:14.130Z,99.90
2019-02-14T09:12:43.786Z,99.90
2019-02-14T09:15:14.034Z,99.90
2019-02-14T09:17:43.984Z,99.90
2019-02-14T09:20:14.715Z,99.90
2019-02-14T09:22:44.474Z,99.90
2019-02-14T09:25:14.029Z,99.90
2019-02-14T09:27:43.444Z,99.90
2019-02-14T09:30:13.281Z,99.90
2019-02-14T09:32:42.624Z,99.90
2019-02-14T09:35:12.437Z,99.90
2019-02-14T09:37:41.936Z,99.90
2019-02-14T09:40:12.475Z,99.90
2019-02-14T09:42:41.841Z,99.90
2019-02-14T09:45:12.196Z,99.90
2019-02-14T09:47:41.944Z,99.90
2019-02-14T09:50:11.999Z,99.90
2019-02-14T09:52:42.139Z,99.90
2019-02-14T09:55:12.459Z,99.90
2019-02-14T09:57:41.960Z,99.90
2019-02-14T10:00:14.117Z,99.90
2019-02-14T10:02:43.786Z,99.90
2019-02-14T10:05:13.574Z,99.90
2019-02-14T10:07:43.266Z,99.90
2019-02-14T10:10:15.505Z,99.90
2019-02-14T10:12:44.966Z,99.90
2019-02-14T10:15:14.700Z,99.90
2019-02-14T10:17:44.151Z,99.90
2019-02-14T10:20:15.576Z,99.90
2019-02-14T10:22:45.988Z,99.90
2019-02-14T10:25:15.733Z,99.90
2019-02-14T10:27:45.182Z,99.90
2019-02-14T10:30:16.840Z,99.90
2019-02-14T10:32:46.249Z,99.90
2019-02-14T10:35:15.867Z,99.90
2019-02-14T10:37:45.337Z,99.90
2019-02-14T10:40:15.153Z,99.90
2019-02-14T10:42:44.599Z,99.90
2019-02-14T10:45:15.378Z,99.90
2019-02-14T10:47:45.311Z,99.90
2019-02-14T10:50:15.085Z,99.90
2019-02-14T10:52:44.654Z,99.90
2019-02-14T10:55:14.440Z,99.90
2019-02-14T10:57:43.908Z,99.90
2019-02-14T11:00:17.900Z,99.90
2019-02-14T11:02:48.341Z,99.90
2019-02-14T11:05:18.847Z,99.90
2019-02-14T11:07:48.499Z,99.90
2019-02-14T11:10:18.153Z,99.90
2019-02-14T11:12:47.772Z,99.90
2019-02-14T11:15:19.313Z,99.90
2019-02-14T11:17:49.281Z,99.90
2019-02-14T11:20:19.151Z,99.90
2019-02-14T11:22:49.202Z,99.90
2019-02-14T11:25:22.143Z,99.90
2019-02-14T11:27:51.637Z,99.90
2019-02-14T11:30:21.286Z,99.90
2019-02-14T11:32:50.722Z,99.90
2019-02-14T11:35:20.342Z,99.90
2019-02-14T11:37:49.845Z,99.90
2019-02-14T11:40:19.477Z,99.90
2019-02-14T11:42:48.921Z,99.90
2019-02-14T11:45:20.536Z,99.90
2019-02-14T11:47:50.057Z,99.90
2019-02-14T11:50:19.664Z,99.90
2019-02-14T11:52:49.115Z,99.90
2019-02-14T11:55:18.593Z,99.90
2019-02-14T11:57:48.249Z,99.90
2019-02-14T12:00:21.861Z,99.90
2019-02-14T12:02:55.629Z,99.90
2019-02-14T12:05:22.860Z,99.90
2019-02-14T12:07:52.278Z,99.90
2019-02-14T12:10:21.755Z,99.90
2019-02-14T12:12:51.247Z,99.90
2019-02-14T12:15:20.711Z,99.90
2019-02-14T12:17:50.212Z,99.90
2019-02-14T12:20:19.986Z,99.90
2019-02-14T12:22:49.577Z,99.90
2019-02-14T12:25:19.064Z,99.90
2019-02-14T12:27:48.479Z,99.90
2019-02-14T12:30:18.117Z,99.90
2019-02-14T12:32:47.522Z,98.60
2019-02-14T12:35:17.139Z,92.00
2019-02-14T12:37:46.724Z,90.70
2019-02-14T12:40:16.244Z,88.90
2019-02-14T12:42:45.734Z,92.00
2019-02-14T12:45:21.707Z,90.10
2019-02-14T12:47:48.393Z,90.10
2019-02-14T12:50:18.131Z,88.20
2019-02-14T12:52:47.719Z,70.40
2019-02-14T12:55:17.223Z,82.50
2019-02-14T12:57:46.817Z,75.50
2019-02-14T13:00:18.402Z,70.10
2019-02-14T13:02:47.844Z,63.20
2019-02-14T13:05:17.509Z,68.60
2019-02-14T13:07:46.905Z,65.10
2019-02-14T13:10:16.771Z,55.90
2019-02-14T13:12:46.906Z,57.10
2019-02-14T13:15:18.990Z,54.90
2019-02-14T13:17:48.430Z,56.80
2019-02-14T13:20:17.902Z,72.80
2019-02-14T13:22:47.511Z,82.20
2019-02-14T13:25:17.158Z,87.50
2019-02-14T13:27:47.060Z,91.20
2019-02-14T13:30:19.382Z,84.50
2019-02-14T13:32:49.099Z,83.70
2019-02-14T13:35:18.844Z,78.40
2019-02-14T13:37:48.659Z,75.60
2019-02-14T13:40:18.213Z,74.00
2019-02-14T13:42:48.127Z,56.30
2019-02-14T13:45:19.712Z,53.60
2019-02-14T13:47:50.056Z,53.90
2019-02-14T13:50:19.770Z,47.50
2019-02-14T13:52:49.315Z,47.30
2019-02-14T13:55:18.900Z,47.40
2019-02-14T13:57:48.554Z,46.80
2019-02-14T14:00:21.057Z,49.70
2019-02-14T14:02:50.915Z,51.70
2019-02-14T14:05:20.366Z,53.90
2019-02-14T14:07:50.392Z,53.00
2019-02-14T14:10:20.138Z,55.60
2019-02-14T14:12:49.819Z,58.30
2019-02-14T14:15:19.524Z,58.30
2019-02-14T14:17:49.067Z,57.60
2019-02-14T14:20:18.628Z,56.10
2019-02-14T14:22:48.097Z,57.60
2019-02-14T14:25:18.066Z,57.60
2019-02-14T14:27:47.634Z,56.70
2019-02-14T14:30:17.446Z,61.50
2019-02-14T14:32:47.031Z,62.60
2019-02-14T14:35:16.647Z,54.70
2019-02-14T14:37:46.046Z,57.70
2019-02-14T14:40:15.648Z,57.90
2019-02-14T14:43:04.435Z,59.20
2019-02-14T14:45:42.413Z,56.30
2019-02-14T14:48:19.250Z,56.10
2019-02-14T14:50:43.784Z,55.50
2019-02-14T14:53:13.546Z,57.40
2019-02-14T14:55:43.201Z,60.40
2019-02-14T14:58:12.692Z,90.20
2019-02-14T15:00:42.309Z,93.80
2019-02-14T15:03:11.873Z,98.10
2019-02-14T15:05:41.422Z,99.90
2019-02-14T15:08:11.115Z,99.90
2019-02-14T15:10:40.480Z,99.90
2019-02-14T15:13:10.051Z,99.90
2019-02-14T15:15:39.671Z,99.90
2019-02-14T15:18:09.195Z,99.90
2019-02-14T15:20:38.596Z,99.90
2019-02-14T15:23:08.189Z,99.90
2019-02-14T15:25:37.591Z,99.90
2019-02-14T15:28:07.209Z,99.90
2019-02-14T15:30:36.749Z,99.90
2019-02-14T15:33:06.287Z,99.90
2019-02-14T15:35:35.848Z,99.90
2019-02-14T15:38:07.445Z,99.90
2019-02-14T15:40:36.733Z,99.90
2019-02-14T15:43:06.315Z,99.90
2019-02-14T15:45:35.833Z,99.90
2019-02-14T15:48:05.369Z,99.90
2019-02-14T15:50:34.910Z,99.90
2019-02-14T15:53:04.640Z,99.90
2019-02-14T15:55:34.109Z,99.90
2019-02-14T15:58:04.410Z,99.90
2019-02-14T16:00:35.202Z,99.90
2019-02-14T16:03:04.742Z,99.90
2019-02-14T16:05:35.244Z,99.90
2019-02-14T16:08:04.984Z,99.90
2019-02-14T16:10:34.884Z,99.90
2019-02-14T16:13:05.856Z,99.90
2019-02-14T16:15:36.031Z,99.90
2019-02-14T16:18:05.536Z,99.90
2019-02-14T16:20:35.141Z,99.90
2019-02-14T16:23:06.428Z,99.90
2019-02-14T16:25:36.025Z,99.90
2019-02-14T16:28:05.614Z,99.90
2019-02-14T16:30:35.334Z,99.90
2019-02-14T16:33:04.939Z,99.90
2019-02-14T16:35:34.485Z,99.90
2019-02-14T16:38:04.037Z,99.90
2019-02-14T16:40:38.531Z,99.90
2019-02-14T16:43:04.804Z,99.90
2019-02-14T16:45:34.598Z,99.90
2019-02-14T16:48:06.854Z,99.90
2019-02-14T16:50:36.463Z,99.90
2019-02-14T16:53:05.860Z,99.90
2019-02-14T16:55:35.531Z,99.90
2019-02-14T16:58:05.329Z,99.90
2019-02-14T17:00:34.980Z,99.90
2019-02-14T17:03:05.026Z,99.90
2019-02-14T17:05:34.983Z,99.90
2019-02-14T17:08:05.012Z,99.90
2019-02-14T17:10:37.208Z,99.90
2019-02-14T17:13:06.753Z,99.90
2019-02-14T17:15:36.268Z,99.90
2019-02-14T17:18:05.889Z,99.90
2019-02-14T17:20:35.478Z,99.90
2019-02-14T17:23:05.314Z,99.90
2019-02-14T17:25:34.898Z,99.90
2019-02-14T17:28:04.752Z,99.90
2019-02-14T17:30:34.445Z,99.90
2019-02-14T17:33:04.421Z,99.90
2019-02-14T17:35:34.129Z,99.90
2019-02-14T17:38:04.535Z,99.90
2019-02-14T17:40:34.258Z,99.90
2019-02-14T17:43:03.883Z,99.90
2019-02-14T17:45:33.417Z,99.90
2019-02-14T17:48:03.093Z,99.90
2019-02-14T17:50:32.738Z,99.90
2019-02-14T17:53:02.637Z,99.90
2019-02-14T17:55:32.390Z,99.90
2019-02-14T17:58:02.049Z,99.90
2019-02-14T18:00:32.100Z,99.90
2019-02-14T18:03:01.914Z,99.90
2019-02-14T18:05:31.484Z,99.90
2019-02-14T18:08:01.014Z,99.90
2019-02-14T18:10:30.557Z,99.90
2019-02-14T18:13:00.231Z,99.90
2019-02-14T18:15:29.797Z,99.90
2019-02-14T18:17:59.356Z,99.90
2019-02-14T18:20:29.040Z,99.90
2019-02-14T18:22:58.921Z,99.90
2019-02-14T18:25:28.650Z,99.90
2019-02-14T18:27:58.406Z,99.90
2019-02-14T18:30:28.131Z,99.90
2019-02-14T18:32:57.778Z,99.90
2019-02-14T18:35:27.651Z,99.90
2019-02-14T18:37:57.452Z,99.90
2019-02-14T18:40:27.237Z,99.90
2019-02-14T18:42:56.786Z,99.90
2019-02-14T18:45:26.916Z,99.90
2019-02-14T18:47:56.767Z,99.90
2019-02-14T18:50:26.488Z,99.90
2019-02-14T18:52:56.271Z,99.90
2019-02-14T18:55:26.176Z,99.90
2019-02-14T18:57:55.668Z,99.90
2019-02-14T19:00:25.466Z,99.90
2019-02-14T19:02:55.131Z,99.90
2019-02-14T19:05:25.492Z,99.90
2019-02-14T19:07:55.177Z,99.90
2019-02-14T19:10:25.600Z,99.90
2019-02-14T19:12:55.499Z,99.90
2019-02-14T19:15:25.447Z,99.90
2019-02-14T19:17:55.047Z,99.90
2019-02-14T19:20:25.468Z,99.90
2019-02-14T19:22:55.151Z,99.90
2019-02-14T19:25:25.691Z,99.90
2019-02-14T19:27:55.476Z,99.90
2019-02-14T19:30:25.460Z,99.90
2019-02-14T19:32:55.529Z,99.90
2019-02-14T19:35:25.947Z,99.90
2019-02-14T19:37:55.615Z,99.90
2019-02-14T19:40:25.197Z,99.90
2019-02-14T19:42:55.204Z,99.90
2019-02-14T19:45:25.313Z,99.90
2019-02-14T19:47:54.994Z,99.90
2019-02-14T19:50:24.941Z,99.90
2019-02-14T19:52:54.816Z,99.90
2019-02-14T19:55:24.676Z,99.90
2019-02-14T19:57:54.743Z,99.90
2019-02-14T20:00:24.785Z,99.90
2019-02-14T20:02:54.519Z,99.90
2019-02-14T20:05:24.297Z,99.90
2019-02-14T20:07:53.952Z,99.90
2019-02-14T20:10:23.809Z,99.90
2019-02-14T20:12:53.604Z,99.90
2019-02-14T20:15:23.324Z,99.90
2019-02-14T20:17:53.087Z,99.90
2019-02-14T20:20:23.054Z,99.90
2019-02-14T20:22:52.923Z,99.90
2019-02-14T20:25:23.941Z,99.90
2019-02-14T20:27:53.737Z,99.90
2019-02-14T20:30:23.399Z,99.90
2019-02-14T20:32:53.306Z,99.90
2019-02-14T20:35:23.483Z,99.90
2019-02-14T20:37:53.734Z,99.90
2019-02-14T20:40:23.685Z,99.90
2019-02-14T20:42:53.496Z,99.90
2019-02-14T20:45:23.127Z,99.90
2019-02-14T20:47:52.746Z,99.90
2019-02-14T20:50:22.697Z,99.90
2019-02-14T20:52:52.576Z,99.90
2019-02-14T20:55:22.818Z,99.90
2019-02-14T20:57:52.471Z,99.90
2019-02-14T21:00:29.532Z,99.90
2019-02-14T21:02:59.172Z,99.90
2019-02-14T21:05:29.109Z,99.90
2019-02-14T21:07:58.938Z,99.90
2019-02-14T21:10:29.011Z,99.90
2019-02-14T21:12:58.508Z,99.90
2019-02-14T21:15:28.172Z,99.90
2019-02-14T21:17:58.021Z,99.90
2019-02-14T21:20:27.594Z,99.90
2019-02-14T21:22:57.472Z,99.90
2019-02-14T21:25:27.309Z,99.90
2019-02-14T21:27:57.217Z,99.90
2019-02-14T21:30:27.273Z,99.90
2019-02-14T21:32:56.907Z,99.90
2019-02-14T21:35:26.657Z,99.90
2019-02-14T21:37:56.640Z,99.90
2019-02-14T21:40:27.017Z,99.90
2019-02-14T21:42:56.767Z,99.90
2019-02-14T21:45:27.469Z,99.90
2019-02-14T21:47:57.137Z,99.90
2019-02-14T21:50:27.839Z,99.90
2019-02-14T21:52:57.619Z,99.90
2019-02-14T21:58:04.836Z,99.90
2019-02-14T22:00:34.548Z,99.90
2019-02-14T22:03:04.864Z,99.90
2019-02-14T22:05:34.430Z,99.90
2019-02-14T22:08:04.007Z,99.90
2019-02-14T22:10:33.591Z,99.90
2019-02-14T22:13:03.089Z,99.90
2019-02-14T22:15:32.553Z,99.90
2019-02-14T22:18:02.129Z,99.90
2019-02-14T22:20:31.618Z,99.90
2019-02-14T22:23:01.415Z,99.90
2019-02-14T22:25:30.963Z,99.90
2019-02-14T22:28:00.346Z,99.90
2019-02-14T22:30:30.155Z,99.90
2019-02-14T22:32:59.887Z,99.90
2019-02-14T22:35:29.744Z,99.90
2019-02-14T22:37:59.324Z,99.90
2019-02-14T22:40:28.986Z,99.90
2019-02-14T22:42:58.531Z,99.90
2019-02-14T22:45:28.046Z,99.90
2019-02-14T22:47:57.531Z,99.90
2019-02-14T22:50:29.814Z,99.90
2019-02-14T22:52:59.688Z,99.90
2019-02-14T22:55:29.239Z,99.90
2019-02-14T22:57:58.735Z,99.90
2019-02-14T23:00:38.703Z,99.90
2019-02-14T23:03:08.275Z,99.90
2019-02-14T23:05:38.161Z,99.90
2019-02-14T23:08:07.635Z,99.90
2019-02-14T23:10:37.646Z,99.90
2019-02-14T23:13:07.280Z,99.90
2019-02-14T23:15:37.461Z,99.90
2019-02-14T23:18:06.998Z,99.90
2019-02-14T23:20:36.513Z,99.90
2019-02-14T23:23:06.007Z,99.90
2019-02-14T23:25:35.766Z,99.90
2019-02-14T23:28:05.218Z,99.90
2019-02-14T23:30:35.356Z,99.90
2019-02-14T23:33:04.779Z,99.90
2019-02-14T23:35:34.795Z,99.90
2019-02-14T23:38:04.188Z,99.90
2019-02-14T23:40:33.962Z,99.90
2019-02-14T23:43:04.958Z,99.90
2019-02-14T23:45:34.815Z,99.90
2019-02-14T23:48:04.161Z,99.90
2019-02-14T23:50:33.547Z,99.90
2019-02-14T23:53:03.087Z,99.90
2019-02-14T23:55:32.630Z,99.90
2019-02-14T23:58:02.251Z,99.90
